createdAt,value
2023-01-30T00:00:15.571Z,79.20
2023-01-30T00:02:47.636Z,79.43
2023-01-30T00:05:19.619Z,79.01
2023-01-30T00:07:51.885Z,79.07
2023-01-30T00:10:26.045Z,78.99
2023-01-30T00:12:58.052Z,79.72
2023-01-30T00:15:29.972Z,79.35
2023-01-30T00:18:01.920Z,79.69
2023-01-30T00:20:34.658Z,79.22
2023-01-30T00:23:06.746Z,79.70
2023-01-30T00:25:38.848Z,79.63
2023-01-30T00:28:10.772Z,79.89
2023-01-30T00:30:42.837Z,79.42
2023-01-30T00:33:14.866Z,79.57
2023-01-30T00:35:51.141Z,79.49
2023-01-30T00:38:23.742Z,79.58
2023-01-30T00:40:55.669Z,79.70
2023-01-30T00:43:46.100Z,79.76
2023-01-30T00:46:49.034Z,79.67
2023-01-30T00:49:21.685Z,79.84
2023-01-30T00:51:54.683Z,79.67
2023-01-30T00:54:26.622Z,79.46
2023-01-30T00:56:58.569Z,79.53
2023-01-30T00:59:30.575Z,79.53
2023-01-30T01:02:02.529Z,79.52
2023-01-30T01:04:43.698Z,79.35
2023-01-30T01:07:16.053Z,79.04
2023-01-30T01:09:47.968Z,79.45
2023-01-30T01:12:19.943Z,79.13
2023-01-30T01:14:51.878Z,78.76
2023-01-30T01:17:24.181Z,79.21
2023-01-30T01:19:56.134Z,78.66
2023-01-30T01:22:28.153Z,78.44
2023-01-30T01:25:00.158Z,78.58
2023-01-30T01:27:32.135Z,78.51
2023-01-30T01:30:05.784Z,78.22
2023-01-30T01:32:37.917Z,78.30
2023-01-30T01:35:10.476Z,78.44
2023-01-30T01:37:42.448Z,78.32
2023-01-30T01:40:38.779Z,78.55
2023-01-30T01:43:24.930Z,77.75
2023-01-30T01:46:02.809Z,77.83
2023-01-30T01:48:40.026Z,77.97
2023-01-30T01:51:19.252Z,77.73
2023-01-30T01:53:58.434Z,77.64
2023-01-30T01:56:33.619Z,77.44
2023-01-30T01:59:11.948Z,77.49
2023-01-30T02:01:44.080Z,77.74
2023-01-30T02:04:36.155Z,77.09
2023-01-30T02:07:09.838Z,77.42
2023-01-30T02:09:41.911Z,77.08
2023-01-30T02:12:15.340Z,77.00
2023-01-30T02:14:48.886Z,77.55
2023-01-30T02:17:21.342Z,76.88
2023-01-30T02:19:53.532Z,76.69
2023-01-30T02:22:37.518Z,76.76
2023-01-30T02:25:23.453Z,77.02
2023-01-30T02:28:13.983Z,76.95
2023-01-30T02:31:10.452Z,76.75
2023-01-30T02:34:04.133Z,76.73
2023-01-30T02:36:50.565Z,76.97
2023-01-30T02:39:49.372Z,76.77
2023-01-30T02:42:38.675Z,76.42
2023-01-30T02:45:31.816Z,76.35
2023-01-30T02:48:05.232Z,76.35
2023-01-30T02:50:43.535Z,76.18
2023-01-30T02:53:15.647Z,76.33
2023-01-30T02:55:47.623Z,76.04
2023-01-30T02:58:23.427Z,76.38
2023-01-30T03:01:12.591Z,76.04
2023-01-30T03:04:09.907Z,76.19
2023-01-30T03:06:54.616Z,76.07
2023-01-30T03:09:42.702Z,75.82
2023-01-30T03:12:25.332Z,76.01
2023-01-30T03:15:06.294Z,75.58
2023-01-30T03:17:40.985Z,75.53
2023-01-30T03:20:15.440Z,75.25
2023-01-30T03:22:47.716Z,75.33
2023-01-30T03:25:26.996Z,75.14
2023-01-30T03:27:59.478Z,75.96
2023-01-30T03:30:31.524Z,75.12
2023-01-30T03:33:03.525Z,75.72
2023-01-30T03:35:35.640Z,74.91
2023-01-30T03:38:07.618Z,75.11
2023-01-30T03:40:39.868Z,74.70
2023-01-30T03:43:11.825Z,75.02
2023-01-30T03:45:43.786Z,75.37
2023-01-30T03:48:15.721Z,75.23
2023-01-30T03:50:47.610Z,75.09
2023-01-30T03:53:19.530Z,75.68
2023-01-30T03:55:51.456Z,75.67
2023-01-30T03:58:23.430Z,75.79
2023-01-30T04:00:57.664Z,76.53
2023-01-30T04:03:29.865Z,76.55
2023-01-30T04:06:01.981Z,77.23
2023-01-30T04:08:33.911Z,77.64
2023-01-30T04:11:05.915Z,78.00
2023-01-30T04:13:37.851Z,78.19
2023-01-30T04:16:21.653Z,77.90
2023-01-30T04:18:53.886Z,78.33
2023-01-30T04:21:25.996Z,78.04
2023-01-30T04:23:57.896Z,77.52
2023-01-30T04:26:29.939Z,77.29
2023-01-30T04:29:01.901Z,76.72
2023-01-30T04:31:33.881Z,76.17
2023-01-30T04:34:05.974Z,75.93
2023-01-30T04:36:38.086Z,75.71
2023-01-30T04:39:10.160Z,74.84
2023-01-30T04:41:42.104Z,74.90
2023-01-30T04:44:14.013Z,74.31
2023-01-30T04:46:46.303Z,73.75
2023-01-30T04:49:18.390Z,73.45
2023-01-30T04:51:50.388Z,73.42
2023-01-30T04:54:22.376Z,73.66
2023-01-30T04:56:54.366Z,73.01
2023-01-30T04:59:26.456Z,73.07
2023-01-30T05:01:58.424Z,72.76
2023-01-30T05:04:30.435Z,72.96
2023-01-30T05:07:02.383Z,72.69
2023-01-30T05:09:34.477Z,72.99
2023-01-30T05:12:06.660Z,72.81
2023-01-30T05:14:41.620Z,72.43
2023-01-30T05:17:13.742Z,73.04
2023-01-30T05:19:45.748Z,72.95
2023-01-30T05:22:17.676Z,72.52
2023-01-30T05:24:49.654Z,72.36
2023-01-30T05:27:21.611Z,72.50
2023-01-30T05:29:53.578Z,72.61
2023-01-30T05:32:27.587Z,72.59
2023-01-30T05:34:59.522Z,72.04
2023-01-30T05:37:31.438Z,71.82
2023-01-30T05:40:03.945Z,72.46
2023-01-30T05:42:35.927Z,72.20
2023-01-30T05:45:08.484Z,72.36
2023-01-30T05:47:40.485Z,72.76
2023-01-30T05:50:12.413Z,72.64
2023-01-30T05:52:44.560Z,72.56
2023-01-30T05:55:17.125Z,72.11
2023-01-30T05:57:49.184Z,72.08
2023-01-30T06:00:21.603Z,71.87
2023-01-30T06:02:53.816Z,72.29
2023-01-30T06:05:25.733Z,72.39
2023-01-30T06:07:57.679Z,72.65
2023-01-30T06:10:29.632Z,72.79
2023-01-30T06:13:01.657Z,73.06
2023-01-30T06:15:33.682Z,73.08
2023-01-30T06:18:05.613Z,73.06
2023-01-30T06:20:37.703Z,72.89
2023-01-30T06:23:09.589Z,72.82
2023-01-30T06:25:48.676Z,72.61
2023-01-30T06:28:21.144Z,72.63
2023-01-30T06:30:53.440Z,72.55
2023-01-30T06:33:25.442Z,72.68
2023-01-30T06:35:57.415Z,72.22
2023-01-30T06:38:29.411Z,72.38
2023-01-30T06:41:01.583Z,72.71
2023-01-30T06:43:33.612Z,72.65
2023-01-30T06:46:05.921Z,72.48
2023-01-30T06:48:37.865Z,72.86
2023-01-30T06:51:09.783Z,73.20
2023-01-30T06:53:41.730Z,73.49
2023-01-30T06:56:13.592Z,73.23
2023-01-30T06:58:46.025Z,73.05
2023-01-30T07:01:19.254Z,73.37
2023-01-30T07:03:51.262Z,72.91
2023-01-30T07:06:23.402Z,72.82
2023-01-30T07:08:58.731Z,72.43
2023-01-30T07:11:31.596Z,72.55
2023-01-30T07:14:05.115Z,72.50
2023-01-30T07:16:38.213Z,72.38
2023-01-30T07:19:10.276Z,72.42
2023-01-30T07:21:42.240Z,72.29
2023-01-30T07:24:14.455Z,71.66
2023-01-30T07:26:49.245Z,71.65
2023-01-30T07:29:21.185Z,71.70
2023-01-30T07:31:53.958Z,71.39
2023-01-30T07:34:25.966Z,70.84
2023-01-30T07:36:57.964Z,71.33
2023-01-30T07:39:30.120Z,71.28
2023-01-30T07:42:03.062Z,72.65
2023-01-30T07:44:35.129Z,73.62
2023-01-30T07:47:07.145Z,73.95
2023-01-30T07:49:39.124Z,74.28
2023-01-30T07:52:11.066Z,73.29
2023-01-30T07:54:43.141Z,73.31
2023-01-30T07:57:15.577Z,73.43
2023-01-30T07:59:47.480Z,73.72
2023-01-30T08:02:19.435Z,73.28
2023-01-30T08:04:51.462Z,73.39
2023-01-30T08:07:23.548Z,73.74
2023-01-30T08:09:55.535Z,73.53
2023-01-30T08:12:28.038Z,73.88
2023-01-30T08:15:00.385Z,73.61
2023-01-30T08:17:32.324Z,73.80
2023-01-30T08:20:05.055Z,73.49
2023-01-30T08:22:36.964Z,73.11
2023-01-30T08:25:09.124Z,73.44
2023-01-30T08:27:41.020Z,73.30
2023-01-30T08:30:14.205Z,73.21
2023-01-30T08:32:46.199Z,73.52
2023-01-30T08:35:18.369Z,73.85
2023-01-30T08:37:50.348Z,74.13
2023-01-30T08:40:22.260Z,73.85
2023-01-30T08:42:54.224Z,74.39
2023-01-30T08:45:26.262Z,74.47
2023-01-30T08:47:59.934Z,74.10
2023-01-30T08:50:33.156Z,74.90
2023-01-30T08:53:07.332Z,74.63
2023-01-30T08:55:39.281Z,74.28
2023-01-30T08:58:11.234Z,73.85
2023-01-30T09:00:46.527Z,74.16
2023-01-30T09:03:20.116Z,74.74
2023-01-30T09:05:56.565Z,74.81
2023-01-30T09:08:29.143Z,74.09
2023-01-30T09:11:05.698Z,75.16
2023-01-30T09:13:39.211Z,74.95
2023-01-30T09:16:12.665Z,75.38
2023-01-30T09:18:45.302Z,74.65
2023-01-30T09:21:17.284Z,74.95
2023-01-30T09:23:49.267Z,75.52
2023-01-30T09:26:21.273Z,75.54
2023-01-30T09:28:53.755Z,74.56
2023-01-30T09:31:25.802Z,75.51
2023-01-30T09:33:57.780Z,76.13
2023-01-30T09:36:29.728Z,76.38
2023-01-30T09:39:01.667Z,75.87
2023-01-30T09:42:01.580Z,75.43
2023-01-30T09:44:42.234Z,75.49
2023-01-30T09:47:17.173Z,74.78
2023-01-30T09:50:20.321Z,75.31
2023-01-30T09:53:11.458Z,74.80
2023-01-30T09:55:43.345Z,75.15
2023-01-30T09:58:21.642Z,75.02
2023-01-30T10:00:59.437Z,75.02
2023-01-30T10:03:40.487Z,75.09
2023-01-30T10:06:14.711Z,75.04
2023-01-30T10:09:23.625Z,75.44
2023-01-30T10:12:18.165Z,75.59
2023-01-30T10:15:33.044Z,76.04
2023-01-30T10:18:08.025Z,76.76
2023-01-30T10:21:11.809Z,76.17
2023-01-30T10:23:55.914Z,75.83
2023-01-30T10:26:29.621Z,75.54
2023-01-30T10:29:18.350Z,75.87
2023-01-30T10:31:51.960Z,75.61
2023-01-30T10:34:33.605Z,76.79
2023-01-30T10:37:24.366Z,76.80
2023-01-30T10:40:05.351Z,76.86
2023-01-30T10:42:42.320Z,76.81
2023-01-30T10:45:18.814Z,76.72
2023-01-30T10:48:31.421Z,77.32
2023-01-30T10:51:52.173Z,77.98
2023-01-30T10:54:24.064Z,78.10
2023-01-30T10:57:19.261Z,78.24
2023-01-30T11:00:08.115Z,77.92
2023-01-30T11:03:04.296Z,77.82
2023-01-30T11:06:12.617Z,77.53
2023-01-30T11:08:45.322Z,77.50
2023-01-30T11:11:29.573Z,77.83
2023-01-30T11:14:12.328Z,77.64
2023-01-30T11:16:58.574Z,77.72
2023-01-30T11:19:35.514Z,77.98
2023-01-30T11:22:07.631Z,77.94
2023-01-30T11:24:41.196Z,78.46
2023-01-30T11:27:29.603Z,77.88
2023-01-30T11:30:14.600Z,78.28
2023-01-30T11:32:49.625Z,78.28
2023-01-30T11:35:29.949Z,79.19
2023-01-30T11:38:14.160Z,79.09
2023-01-30T11:40:46.144Z,78.47
2023-01-30T11:43:18.107Z,78.85
2023-01-30T11:45:51.097Z,78.64
2023-01-30T11:49:45.387Z,78.82
2023-01-30T11:51:27.381Z,78.68
2023-01-30T11:54:14.939Z,78.65
2023-01-30T11:56:54.163Z,77.97
2023-01-30T12:00:01.435Z,78.17
2023-01-30T12:02:35.881Z,77.95
2023-01-30T12:05:22.567Z,78.33
2023-01-30T12:08:13.123Z,78.17
2023-01-30T12:10:51.087Z,77.60
2023-01-30T12:13:45.856Z,77.92
2023-01-30T12:16:35.233Z,77.94
2023-01-30T12:19:44.833Z,77.95
2023-01-30T12:22:27.154Z,78.46
2023-01-30T12:25:01.856Z,78.27
2023-01-30T12:27:52.392Z,78.49
2023-01-30T12:31:19.960Z,78.64
2023-01-30T12:33:54.963Z,78.60
2023-01-30T12:36:53.471Z,79.24
2023-01-30T12:39:34.357Z,79.29
2023-01-30T12:42:33.708Z,79.44
2023-01-30T12:45:26.832Z,79.26
2023-01-30T12:48:44.005Z,79.45
2023-01-30T12:51:49.580Z,79.41
2023-01-30T12:54:21.356Z,79.36
2023-01-30T12:57:08.746Z,80.32
2023-01-30T13:00:00.929Z,79.95
2023-01-30T13:02:32.961Z,79.81
2023-01-30T13:05:23.690Z,80.26
2023-01-30T13:08:11.005Z,80.43
2023-01-30T13:10:45.952Z,80.70
2023-01-30T13:13:36.620Z,80.45
2023-01-30T13:16:29.794Z,80.76
2023-01-30T13:19:13.276Z,80.46
2023-01-30T13:21:49.304Z,80.32
2023-01-30T13:24:35.428Z,80.65
2023-01-30T13:27:16.510Z,80.77
2023-01-30T13:29:49.271Z,81.02
2023-01-30T13:32:39.062Z,80.72
2023-01-30T13:35:21.971Z,80.60
2023-01-30T13:37:55.692Z,80.35
2023-01-30T13:40:40.310Z,80.43
2023-01-30T13:43:22.864Z,80.21
2023-01-30T13:45:59.271Z,80.24
2023-01-30T13:48:49.096Z,80.21
2023-01-30T13:51:33.767Z,80.44
2023-01-30T13:54:43.690Z,80.79
2023-01-30T13:57:42.989Z,80.90
2023-01-30T14:00:30.407Z,80.91
2023-01-30T14:03:08.302Z,80.87
2023-01-30T14:05:53.096Z,80.70
2023-01-30T14:08:34.275Z,80.55
2023-01-30T14:11:33.047Z,80.72
2023-01-30T14:14:28.556Z,80.71
2023-01-30T14:17:13.139Z,81.17
2023-01-30T14:20:03.104Z,80.81
2023-01-30T14:22:53.775Z,80.61
2023-01-30T14:25:25.764Z,80.93
2023-01-30T14:28:00.897Z,80.63
2023-01-30T14:30:45.392Z,81.21
2023-01-30T14:33:23.594Z,81.30
2023-01-30T14:35:58.686Z,81.35
2023-01-30T14:38:32.899Z,81.64
2023-01-30T14:41:26.440Z,80.93
2023-01-30T14:43:58.454Z,81.07
2023-01-30T14:46:30.521Z,81.30
2023-01-30T14:49:13.892Z,81.59
2023-01-30T14:51:48.275Z,81.58
2023-01-30T14:54:33.291Z,81.74
2023-01-30T14:57:23.728Z,82.01
2023-01-30T15:00:15.395Z,81.98
2023-01-30T15:02:56.754Z,82.29
2023-01-30T15:05:33.343Z,82.32
2023-01-30T15:08:15.211Z,82.21
2023-01-30T15:11:07.844Z,81.87
2023-01-30T15:13:48.717Z,81.78
2023-01-30T15:16:39.609Z,82.33
2023-01-30T15:19:30.463Z,82.25
2023-01-30T15:22:25.530Z,82.48
2023-01-30T15:25:31.147Z,82.44
2023-01-30T15:28:18.226Z,82.36
2023-01-30T15:31:10.738Z,82.49
2023-01-30T15:33:50.683Z,81.77
2023-01-30T15:36:36.917Z,81.69
2023-01-30T15:39:35.227Z,81.91
2023-01-30T15:42:08.420Z,81.66
2023-01-30T15:45:01.922Z,81.79
2023-01-30T15:47:48.493Z,82.11
2023-01-30T15:50:21.174Z,81.60
2023-01-30T15:52:54.521Z,81.71
2023-01-30T15:55:36.325Z,81.56
2023-01-30T15:58:19.056Z,81.58
2023-01-30T16:00:57.883Z,81.26
2023-01-30T16:03:40.910Z,81.69
2023-01-30T16:06:35.010Z,81.84
2023-01-30T16:09:20.340Z,81.56
2023-01-30T16:11:52.798Z,81.71
2023-01-30T16:14:25.219Z,81.43
2023-01-30T16:17:03.774Z,81.27
2023-01-30T16:19:38.228Z,81.28
2023-01-30T16:22:20.305Z,81.19
2023-01-30T16:24:55.186Z,81.04
2023-01-30T16:27:33.764Z,81.22
2023-01-30T16:30:09.574Z,81.51
2023-01-30T16:32:44.524Z,81.23
2023-01-30T16:35:27.454Z,80.97
2023-01-30T16:38:02.086Z,81.16
2023-01-30T16:40:45.286Z,80.72
2023-01-30T16:43:22.059Z,80.91
2023-01-30T16:45:54.036Z,80.88
2023-01-30T16:48:35.267Z,81.03
2023-01-30T16:51:14.782Z,80.62
2023-01-30T16:53:58.842Z,80.48
2023-01-30T16:56:34.731Z,80.73
2023-01-30T16:59:06.676Z,80.83
2023-01-30T17:01:41.857Z,80.92
2023-01-30T17:04:21.710Z,80.65
2023-01-30T17:07:01.729Z,81.02
2023-01-30T17:09:47.357Z,80.80
2023-01-30T17:12:31.547Z,81.21
2023-01-30T17:15:09.710Z,81.05
2023-01-30T17:17:42.144Z,80.96
2023-01-30T17:20:16.820Z,81.02
2023-01-30T17:22:52.687Z,80.99
2023-01-30T17:25:30.029Z,80.76
2023-01-30T17:28:02.622Z,80.81
2023-01-30T17:30:35.366Z,81.04
2023-01-30T17:33:07.361Z,81.01
2023-01-30T17:35:39.916Z,81.31
2023-01-30T17:38:12.958Z,80.96
2023-01-30T17:40:45.143Z,80.73
2023-01-30T17:43:18.149Z,81.34
2023-01-30T17:45:50.441Z,81.52
2023-01-30T17:48:22.402Z,81.16
2023-01-30T17:50:54.354Z,81.22
2023-01-30T17:53:26.292Z,81.03
2023-01-30T17:55:58.348Z,81.31
2023-01-30T17:58:30.640Z,81.00
2023-01-30T18:01:02.652Z,81.03
2023-01-30T18:03:34.578Z,80.76
2023-01-30T18:06:06.947Z,80.88
2023-01-30T18:08:38.924Z,80.87
2023-01-30T18:11:12.303Z,80.57
2023-01-30T18:13:47.264Z,80.39
2023-01-30T18:16:33.248Z,80.17
2023-01-30T18:19:08.980Z,80.75
2023-01-30T18:21:45.250Z,80.40
2023-01-30T18:24:17.210Z,80.23
2023-01-30T18:26:49.277Z,80.51
2023-01-30T18:29:21.226Z,80.37
2023-01-30T18:31:53.288Z,80.27
2023-01-30T18:34:25.269Z,80.42
2023-01-30T18:36:57.257Z,80.45
2023-01-30T18:39:29.711Z,80.61
2023-01-30T18:42:03.413Z,80.46
2023-01-30T18:44:36.060Z,80.06
2023-01-30T18:47:08.076Z,80.54
2023-01-30T18:49:40.040Z,80.42
2023-01-30T18:52:12.027Z,80.45
2023-01-30T18:54:44.021Z,80.18
2023-01-30T18:57:16.521Z,80.28
2023-01-30T18:59:48.500Z,80.67
2023-01-30T19:02:20.495Z,80.43
2023-01-30T19:04:52.448Z,80.14
2023-01-30T19:07:24.450Z,80.27
2023-01-30T19:09:56.703Z,80.41
2023-01-30T19:12:47.085Z,80.38
2023-01-30T19:15:18.945Z,80.09
2023-01-30T19:17:50.977Z,79.95
2023-01-30T19:20:24.117Z,80.03
2023-01-30T19:22:56.866Z,80.75
2023-01-30T19:25:28.848Z,80.85
2023-01-30T19:28:00.776Z,81.41
2023-01-30T19:30:32.751Z,80.76
2023-01-30T19:33:04.736Z,81.03
2023-01-30T19:35:36.639Z,80.84
2023-01-30T19:38:08.894Z,80.66
2023-01-30T19:40:45.253Z,80.42
2023-01-30T19:43:17.749Z,80.98
2023-01-30T19:45:57.786Z,80.89
2023-01-30T19:48:29.809Z,81.27
2023-01-30T19:51:10.499Z,80.77
2023-01-30T19:53:44.177Z,80.86
2023-01-30T19:56:17.042Z,80.69
2023-01-30T19:58:53.303Z,80.68
2023-01-30T20:01:28.294Z,80.47
2023-01-30T20:04:02.217Z,80.68
2023-01-30T20:06:36.183Z,81.11
2023-01-30T20:09:11.476Z,80.66
2023-01-30T20:11:43.767Z,80.62
2023-01-30T20:14:15.730Z,80.68
2023-01-30T20:16:47.780Z,80.93
2023-01-30T20:19:19.691Z,81.31
2023-01-30T20:21:51.688Z,81.09
2023-01-30T20:24:23.555Z,81.08
2023-01-30T20:26:55.544Z,81.22
2023-01-30T20:29:27.522Z,80.65
2023-01-30T20:31:59.563Z,80.88
2023-01-30T20:34:31.547Z,81.57
2023-01-30T20:37:03.567Z,81.13
2023-01-30T20:39:35.423Z,81.65
2023-01-30T20:42:07.499Z,81.53
2023-01-30T20:44:39.824Z,81.24
2023-01-30T20:47:12.318Z,81.50
2023-01-30T20:49:45.034Z,81.81
2023-01-30T20:52:18.515Z,82.26
2023-01-30T20:54:50.506Z,82.01
2023-01-30T20:57:22.550Z,81.93
2023-01-30T20:59:54.404Z,82.44
2023-01-30T21:02:26.246Z,82.20
2023-01-30T21:04:58.095Z,82.40
2023-01-30T21:07:32.076Z,82.26
2023-01-30T21:10:04.652Z,82.27
2023-01-30T21:12:36.996Z,82.20
2023-01-30T21:15:09.488Z,81.99
2023-01-30T21:17:41.915Z,82.10
2023-01-30T21:20:13.894Z,81.97
2023-01-30T21:22:46.189Z,81.60
2023-01-30T21:25:19.269Z,81.88
2023-01-30T21:27:51.227Z,81.74
2023-01-30T21:30:23.412Z,81.92
2023-01-30T21:32:55.474Z,81.60
2023-01-30T21:35:27.454Z,81.82
2023-01-30T21:38:17.945Z,81.29
2023-01-30T21:41:11.695Z,81.14
2023-01-30T21:43:47.226Z,81.25
2023-01-30T21:46:19.173Z,81.14
2023-01-30T21:48:51.129Z,81.50
2023-01-30T21:51:23.281Z,81.20
2023-01-30T21:53:56.066Z,80.97
2023-01-30T21:56:28.049Z,80.81
2023-01-30T21:59:01.265Z,80.94
2023-01-30T22:01:34.324Z,80.75
2023-01-30T22:04:09.569Z,80.65
2023-01-30T22:06:42.089Z,80.62
2023-01-30T22:09:16.023Z,80.49
2023-01-30T22:11:48.730Z,80.84
2023-01-30T22:14:23.532Z,80.75
2023-01-30T22:16:55.454Z,80.42
2023-01-30T22:19:27.400Z,80.59
2023-01-30T22:21:59.274Z,80.94
2023-01-30T22:24:31.564Z,80.87
2023-01-30T22:27:03.568Z,80.90
2023-01-30T22:29:36.148Z,81.07
2023-01-30T22:32:08.135Z,80.80
2023-01-30T22:34:40.565Z,80.58
2023-01-30T22:37:13.042Z,80.38
2023-01-30T22:39:45.015Z,80.46
2023-01-30T22:42:17.019Z,80.75
2023-01-30T22:44:48.937Z,80.54
2023-01-30T22:47:20.962Z,80.76
2023-01-30T22:49:52.897Z,80.50
2023-01-30T22:52:24.897Z,80.38
2023-01-30T22:54:56.918Z,80.51
2023-01-30T22:57:28.885Z,80.56
2023-01-30T23:00:00.851Z,80.33
2023-01-30T23:02:32.828Z,80.23
2023-01-30T23:05:05.094Z,80.13
2023-01-30T23:07:37.011Z,80.10
2023-01-30T23:10:10.177Z,79.97
2023-01-30T23:13:00.494Z,80.03
2023-01-30T23:15:38.132Z,80.01
2023-01-30T23:18:29.384Z,79.88
2023-01-30T23:21:01.526Z,79.99
2023-01-30T23:23:33.645Z,79.97
2023-01-30T23:26:06.194Z,79.95
2023-01-30T23:28:39.029Z,79.88
2023-01-30T23:31:14.853Z,79.88
2023-01-30T23:33:47.015Z,79.89
2023-01-30T23:36:18.985Z,79.67
2023-01-30T23:38:52.700Z,79.67
2023-01-30T23:41:29.081Z,79.58
2023-01-30T23:44:01.780Z,79.43
2023-01-30T23:46:36.421Z,79.81
2023-01-30T23:49:15.314Z,79.57
2023-01-30T23:51:47.184Z,78.84
2023-01-30T23:54:19.093Z,79.00
2023-01-30T23:56:51.052Z,79.20
2023-01-30T23:59:23.000Z,79.04
